Time;durP1;ratioP1;P1;durP2;ratioP2;P2;SDS_P1;SDS_P2;PMS_P1;PMS_P2;Temp;Humidity;BMP_temperature;BMP_pressure;BME280_temperature;BME280_humidity;BME280_pressure;Samples;Min_cycle;Max_cycle;Signal;HPM_P1;HPM_P2
2021/06/24 00:02:20;;;;;;;6.50;2.40;;;;;;;15.73;77.47;101385.70;125139;1092;64416;-80
2021/06/24 00:04:47;;;;;;;5.73;2.87;;;;;;;15.73;77.33;101387.56;125198;1093;64303;-81
2021/06/24 00:07:14;;;;;;;5.33;2.60;;;;;;;15.73;77.65;101392.91;125163;1092;64282;-79
2021/06/24 00:09:41;;;;;;;5.63;3.10;;;;;;;15.73;77.57;101404.43;125140;1093;64211;-80
2021/06/24 00:12:09;;;;;;;5.70;2.60;;;;;;;15.74;77.70;101398.05;125197;1093;64307;-80
2021/06/24 00:14:36;;;;;;;8.73;2.90;;;;;;;15.72;77.88;101405.44;124982;1093;64253;-79
2021/06/24 00:17:03;;;;;;;5.70;2.90;;;;;;;15.70;77.83;101402.95;125140;1091;64310;-79
2021/06/24 00:19:30;;;;;;;5.60;2.73;;;;;;;15.71;77.68;101409.11;125124;1092;64300;-79
2021/06/24 00:21:57;;;;;;;4.73;3.03;;;;;;;15.70;77.65;101412.79;125254;1092;64285;-79
2021/06/24 00:24:24;;;;;;;6.87;3.40;;;;;;;15.70;77.50;101404.77;124943;1092;64361;-80
2021/06/24 00:26:51;;;;;;;6.97;2.90;;;;;;;15.71;77.39;101401.09;125091;1092;64227;-79
2021/06/24 00:29:18;;;;;;;6.17;3.23;;;;;;;15.72;77.61;101397.41;125206;1093;64990;-79
2021/06/24 00:31:45;;;;;;;5.17;2.53;;;;;;;15.72;77.71;101394.73;125103;1092;64176;-80
2021/06/24 00:34:13;;;;;;;4.97;2.40;;;;;;;15.71;77.72;101393.06;125124;1092;64275;-79
2021/06/24 00:36:40;;;;;;;5.37;2.03;;;;;;;15.72;78.07;101384.03;125083;1092;64259;-79
2021/06/24 00:39:07;;;;;;;7.87;3.30;;;;;;;15.69;77.82;101369.17;125100;1092;64520;-80
2021/06/24 00:41:35;;;;;;;6.47;2.70;;;;;;;15.68;78.31;101375.56;125127;1092;64301;-80
2021/06/24 00:44:02;;;;;;;4.47;2.30;;;;;;;15.66;78.15;101374.92;125096;1093;64211;-79
2021/06/24 00:46:29;;;;;;;7.10;2.87;;;;;;;15.62;78.42;101376.32;125020;1092;64757;-80
2021/06/24 00:48:58;;;;;;;5.23;2.53;;;;;;;15.59;78.59;101371.34;124926;1093;64282;-80
2021/06/24 00:51:25;;;;;;;5.30;2.60;;;;;;;15.57;78.66;101369.88;124931;1092;64284;-81
2021/06/24 00:53:53;;;;;;;4.13;2.40;;;;;;;15.55;78.72;101372.73;124841;1092;64323;-80
2021/06/24 00:56:31;;;;;;;7.77;2.40;;;;;;;15.52;78.84;101369.64;124919;1093;64178;-79
2021/06/24 00:59:00;;;;;;;8.40;2.80;;;;;;;15.49;78.61;101366.33;124868;1093;64281;-80
2021/06/24 01:01:28;;;;;;;7.55;3.30;;;;;;;15.47;78.78;101365.69;125027;1093;64294;-81
2021/06/24 01:03:55;;;;;;;6.50;3.07;;;;;;;15.44;78.78;101355.36;124934;1092;64319;-80
2021/06/24 01:06:22;;;;;;;6.70;2.80;;;;;;;15.45;78.95;101358.88;125071;1093;64282;-80
2021/06/24 01:08:49;;;;;;;4.93;2.30;;;;;;;15.44;79.11;101355.36;124842;1093;64396;-79
2021/06/24 01:11:17;;;;;;;7.53;2.80;;;;;;;15.44;79.26;101352.69;125064;1093;64447;-80
2021/06/24 01:13:46;;;;;;;4.43;2.07;;;;;;;15.46;79.38;101358.67;125244;1092;64886;-80
2021/06/24 01:16:15;;;;;;;3.97;2.07;;;;;;;15.48;79.21;101372.67;126475;1093;64291;-81
2021/06/24 01:18:42;;;;;;;5.40;2.43;;;;;;;15.49;79.17;101363.66;125778;1092;64180;-82
2021/06/24 01:21:09;;;;;;;9.57;3.33;;;;;;;15.49;79.13;101363.66;127329;1093;61961;-81
2021/06/24 01:23:44;;;;;;;6.73;2.40;;;;;;;15.50;79.11;101357.27;127379;1093;63678;-83
2021/06/24 01:26:11;;;;;;;4.70;2.30;;;;;;;15.48;78.95;101358.48;126945;1093;64192;-81
2021/06/24 01:28:38;;;;;;;5.43;2.27;;;;;;;15.46;79.07;101357.84;125887;1092;64792;-80
2021/06/24 01:31:06;;;;;;;6.90;2.67;;;;;;;15.45;79.45;101354.36;124956;1093;64287;-81
2021/06/24 01:33:34;;;;;;;7.17;2.40;;;;;;;15.44;79.25;101371.41;125102;1093;64304;-80
2021/06/24 01:36:04;;;;;;;5.70;3.23;;;;;;;15.41;79.29;101361.10;124868;1093;64384;-80
2021/06/24 01:38:32;;;;;;;6.33;2.43;;;;;;;15.42;79.73;101357.39;124988;1093;64268;-80
2021/06/24 01:41:00;;;;;;;9.27;2.57;;;;;;;15.42;79.18;101357.39;125307;1093;64278;-80
2021/06/24 01:43:27;;;;;;;7.17;2.80;;;;;;;15.41;79.16;101361.10;125093;1093;64298;-80
2021/06/24 01:45:57;;;;;;;6.33;2.87;;;;;;;15.41;79.49;101366.45;124879;1093;64205;-80
2021/06/24 01:48:26;;;;;;;5.85;2.50;;;;;;;15.40;79.65;101363.95;125049;1092;64323;-82
2021/06/24 01:50:55;;;;;;;6.97;3.67;;;;;;;15.37;79.38;101365.17;125248;1093;64305;-80
2021/06/24 01:53:22;;;;;;;6.27;2.50;;;;;;;15.36;80.05;101357.33;125161;1092;64300;-81
2021/06/24 01:55:52;;;;;;;8.60;3.40;;;;;;;15.35;80.04;101350.34;125297;1092;64172;-81
2021/06/24 01:58:23;;;;;;;10.00;2.70;;;;;;;15.35;80.23;101351.16;126109;1093;64371;-80
2021/06/24 02:00:52;;;;;;;4.93;2.33;;;;;;;15.32;80.28;101340.84;125749;1092;64243;-81
2021/06/24 02:03:20;;;;;;;7.00;3.37;;;;;;;15.28;80.78;101340.41;125374;1093;64297;-79
2021/06/24 02:05:51;;;;;;;7.27;2.90;;;;;;;15.28;80.72;101339.59;124915;1092;64808;-80
2021/06/24 02:08:21;;;;;;;9.00;3.70;;;;;;;15.26;80.67;101337.09;125196;1093;64227;-80
2021/06/24 02:10:50;;;;;;;4.50;2.80;;;;;;;15.23;81.33;101337.46;125386;1093;64540;-80
2021/06/24 02:13:17;;;;;;;7.13;2.50;;;;;;;15.22;80.93;101335.00;125020;1093;64374;-80
2021/06/24 02:15:44;;;;;;;9.50;3.87;;;;;;;15.21;80.62;101333.33;124906;1092;64352;-80
2021/06/24 02:18:12;;;;;;;7.50;3.00;;;;;;;15.21;80.75;101341.34;124938;1093;64371;-79
2021/06/24 02:20:40;;;;;;;6.10;2.77;;;;;;;15.17;81.01;101338.22;124801;1093;64279;-80
2021/06/24 02:23:09;;;;;;;5.73;3.13;;;;;;;15.18;80.94;101333.72;124883;1093;64306;-82
2021/06/24 02:25:36;;;;;;;5.20;3.10;;;;;;;15.17;81.11;101332.87;124972;1093;64258;-79
2021/06/24 02:28:04;;;;;;;5.63;2.73;;;;;;;15.15;80.91;101323.39;124956;1092;64323;-80
2021/06/24 02:30:31;;;;;;;6.90;3.50;;;;;;;15.12;80.95;101323.78;125423;1093;64294;-80
2021/06/24 02:32:59;;;;;;;5.77;3.27;;;;;;;15.11;80.71;101327.45;125432;1093;64336;-80
2021/06/24 02:35:26;;;;;;;6.57;2.77;;;;;;;15.13;80.93;101333.45;125015;1093;64245;-80
2021/06/24 02:37:54;;;;;;;5.10;2.43;;;;;;;15.14;80.95;101327.09;125196;1093;64435;-81
2021/06/24 02:40:22;;;;;;;6.17;3.00;;;;;;;15.14;80.80;101322.57;125784;1093;63278;-81
2021/06/24 02:42:50;;;;;;;4.43;3.00;;;;;;;15.15;80.80;101328.73;126524;1093;64178;-81
2021/06/24 02:45:17;;;;;;;6.25;3.55;;;;;;;15.15;80.85;101328.73;126235;1093;64301;-81
2021/06/24 02:47:44;;;;;;;16.90;3.43;;;;;;;15.14;80.76;101340.46;126005;1093;64258;-81
2021/06/24 02:50:12;;;;;;;10.17;3.43;;;;;;;15.13;81.11;101331.63;125092;1093;64419;-80
2021/06/24 02:52:39;;;;;;;8.70;3.80;;;;;;;15.16;80.76;101325.06;124828;1092;64320;-80
2021/06/24 02:55:07;;;;;;;7.63;3.10;;;;;;;15.17;81.01;101321.36;125211;1092;64296;-80
2021/06/24 02:57:35;;;;;;;7.47;2.93;;;;;;;15.19;80.78;101330.02;125816;1093;64288;-81
2021/06/24 03:00:09;;;;;;;11.80;4.40;;;;;;;15.19;80.78;101324.67;126280;1091;64766;-82
2021/06/24 03:02:37;;;;;;;7.27;3.23;;;;;;;15.19;80.91;101327.34;126436;1093;64301;-82
2021/06/24 03:05:09;;;;;;;7.60;3.10;;;;;;;15.19;80.70;101332.69;126128;1093;64345;-80
2021/06/24 03:07:36;;;;;;;5.67;3.20;;;;;;;15.19;80.63;101330.02;124970;1093;64385;-81
2021/06/24 03:10:04;;;;;;;8.50;3.35;;;;;;;15.20;80.68;101326.34;125100;1093;64304;-81
2021/06/24 03:12:32;;;;;;;11.23;3.77;;;;;;;15.21;80.43;101317.29;124905;1093;64372;-81
2021/06/24 03:14:59;;;;;;;7.00;2.90;;;;;;;15.21;80.46;101311.95;125018;1093;64285;-80
2021/06/24 03:17:26;;;;;;;7.45;3.50;;;;;;;15.19;80.72;101309.45;125011;1092;64282;-79
2021/06/24 03:19:53;;;;;;;7.93;2.83;;;;;;;15.18;80.53;101315.02;124815;1092;64802;-80
2021/06/24 03:22:20;;;;;;;7.67;3.60;;;;;;;15.17;80.71;101310.67;125107;1093;64326;-80
2021/06/24 03:24:48;;;;;;;7.93;2.97;;;;;;;15.18;80.56;101317.69;124857;1093;64214;-80
2021/06/24 03:27:15;;;;;;;6.47;3.23;;;;;;;15.16;80.54;101319.72;124913;1093;64374;-80
2021/06/24 03:29:42;;;;;;;10.40;4.10;;;;;;;15.14;80.70;101313.73;124865;1092;64288;-80
2021/06/24 03:32:09;;;;;;;7.37;3.40;;;;;;;15.11;80.82;101324.78;124940;1093;64287;-82
2021/06/24 03:34:36;;;;;;;6.07;3.13;;;;;;;15.12;80.79;101313.09;124972;1092;64281;-79
2021/06/24 03:37:04;;;;;;;6.65;4.20;;;;;;;15.09;81.04;101312.45;125045;1093;64348;-80
2021/06/24 03:39:31;;;;;;;5.40;2.90;;;;;;;15.08;81.01;101313.46;124839;1092;64432;-80
2021/06/24 03:41:59;;;;;;;8.23;3.10;;;;;;;15.08;80.97;101309.97;125009;1093;64290;-82
2021/06/24 03:44:26;;;;;;;6.67;3.33;;;;;;;15.11;81.14;101317.63;124892;1092;64291;-79
2021/06/24 03:46:53;;;;;;;5.83;2.70;;;;;;;15.12;81.15;101310.42;124996;1093;64287;-80
2021/06/24 03:49:20;;;;;;;5.93;2.27;;;;;;;15.12;80.96;101307.75;124859;1092;64291;-80
2021/06/24 03:51:48;;;;;;;6.63;3.20;;;;;;;15.09;81.19;101311.64;124806;1093;65619;-80
2021/06/24 03:54:15;;;;;;;6.17;2.93;;;;;;;15.08;81.25;101310.79;124823;1093;64277;-80
2021/06/24 03:56:42;;;;;;;5.43;2.60;;;;;;;15.07;81.20;101306.47;125084;1093;64299;-79
2021/06/24 03:59:09;;;;;;;6.20;2.50;;;;;;;15.08;81.35;101304.63;124951;1093;64249;-80
2021/06/24 04:01:42;;;;;;;6.77;2.97;;;;;;;15.07;81.26;101305.66;125080;1092;64709;-80
2021/06/24 04:04:11;;;;;;;9.57;3.23;;;;;;;15.08;81.08;101304.63;125117;1093;64296;-79
2021/06/24 04:06:38;;;;;;;7.63;2.80;;;;;;;15.08;81.66;101301.95;125258;1093;64319;-79
2021/06/24 04:09:08;;;;;;;8.20;3.20;;;;;;;15.12;81.25;101318.44;124947;1092;64297;-79
2021/06/24 04:11:35;;;;;;;8.55;3.85;;;;;;;15.12;81.44;101305.91;125352;1093;64258;-80
2021/06/24 04:14:02;;;;;;;7.07;4.00;;;;;;;15.14;81.43;101306.54;124899;1092;64285;-80
2021/06/24 04:16:29;;;;;;;5.60;2.97;;;;;;;15.12;81.26;101305.91;124835;1093;64321;-79
2021/06/24 04:18:57;;;;;;;7.27;3.13;;;;;;;15.12;81.10;101307.75;124805;1091;64331;-80
2021/06/24 04:21:24;;;;;;;7.10;2.65;;;;;;;15.11;81.16;101311.42;124815;1093;64450;-79
2021/06/24 04:23:52;;;;;;;5.43;2.83;;;;;;;15.11;81.62;101309.61;124785;1093;64292;-79
2021/06/24 04:26:19;;;;;;;7.60;3.23;;;;;;;15.12;81.49;101305.08;124992;1093;64288;-79
2021/06/24 04:28:46;;;;;;;6.13;3.53;;;;;;;15.11;81.62;101301.59;124828;1093;64429;-80
2021/06/24 04:31:13;;;;;;;5.60;2.67;;;;;;;15.12;81.80;101307.75;124982;1091;64189;-80
2021/06/24 04:33:40;;;;;;;4.90;2.70;;;;;;;15.11;81.35;101303.41;125033;1091;64285;-80
2021/06/24 04:36:07;;;;;;;4.47;2.43;;;;;;;15.08;81.79;101302.77;124902;1093;64314;-80
2021/06/24 04:38:34;;;;;;;7.43;3.23;;;;;;;15.07;81.73;101298.45;124884;1093;64259;-80
2021/06/24 04:41:02;;;;;;;3.83;2.60;;;;;;;15.09;81.62;101299.09;124922;1093;64280;-80
2021/06/24 04:43:29;;;;;;;8.20;3.45;;;;;;;15.12;81.66;101297.06;124863;1093;64234;-80
2021/06/24 04:45:56;;;;;;;8.30;3.40;;;;;;;15.14;81.46;101300.38;124798;1093;64281;-80
2021/06/24 04:48:24;;;;;;;6.37;3.07;;;;;;;15.17;81.20;101299.98;124939;1093;64271;-80
2021/06/24 04:50:51;;;;;;;6.23;2.90;;;;;;;15.16;81.26;101293.00;124892;1093;65368;-80
2021/06/24 04:53:18;;;;;;;7.30;2.77;;;;;;;15.16;81.52;101293.00;124912;1093;64358;-81
2021/06/24 04:55:45;;;;;;;4.97;3.03;;;;;;;15.17;81.35;101283.95;124956;1093;64290;-80
2021/06/24 04:58:12;;;;;;;11.13;3.27;;;;;;;15.18;81.27;101296.30;124964;1093;64285;-80
2021/06/24 05:00:39;;;;;;;9.87;4.10;;;;;;;15.18;81.56;101285.61;124783;1093;65566;-80
2021/06/24 05:03:10;;;;;;;5.83;2.70;;;;;;;15.22;81.19;101284.22;124977;1093;64262;-82
2021/06/24 05:05:40;;;;;;;4.93;2.70;;;;;;;15.23;81.01;101286.68;124993;1092;64428;-80
2021/06/24 05:08:13;;;;;;;6.43;3.20;;;;;;;15.28;81.45;101286.13;125103;1093;64234;-80
2021/06/24 05:10:44;;;;;;;8.13;3.20;;;;;;;15.36;81.16;101285.16;125017;1092;64368;-80
2021/06/24 05:13:11;;;;;;;7.53;3.63;;;;;;;15.42;81.10;101287.88;125061;1092;64301;-77
2021/06/24 05:15:42;;;;;;;9.65;5.25;;;;;;;15.52;80.94;101278.73;124712;1093;64365;-74
2021/06/24 05:18:10;;;;;;;44.37;31.03;;;;;;;15.56;80.62;101282.67;124786;1093;64390;-74
2021/06/24 05:20:39;;;;;;;6.00;4.20;;;;;;;15.61;80.55;101275.70;125043;1093;65375;-74
2021/06/24 05:23:07;;;;;;;5.17;3.07;;;;;;;15.67;80.09;101282.13;124985;1093;64252;-73
2021/06/24 05:25:37;;;;;;;7.30;3.47;;;;;;;15.72;80.07;101281.57;124660;1093;64256;-74
2021/06/24 05:28:04;;;;;;;10.07;3.53;;;;;;;15.77;80.04;101281.80;124759;1093;64368;-77
2021/06/24 05:30:32;;;;;;;12.27;5.00;;;;;;;15.80;80.00;101278.75;124627;1092;64345;-74
2021/06/24 05:32:59;;;;;;;8.87;3.33;;;;;;;15.84;80.00;101277.34;124761;1093;64313;-73
2021/06/24 05:35:26;;;;;;;6.20;2.80;;;;;;;15.87;79.62;101274.27;124837;1093;64261;-73
2021/06/24 05:37:55;;;;;;;5.90;2.70;;;;;;;15.92;79.55;101271.84;124685;1093;64304;-74
2021/06/24 05:40:22;;;;;;;7.13;3.33;;;;;;;15.99;79.44;101271.88;124609;1092;64300;-73
2021/06/24 05:42:50;;;;;;;9.50;3.40;;;;;;;16.05;78.98;101274.59;124538;1093;64442;-73
2021/06/24 05:45:17;;;;;;;4.77;2.53;;;;;;;16.13;78.68;101273.63;125394;1092;64313;-73
2021/06/24 05:47:45;;;;;;;6.13;3.73;;;;;;;16.23;78.78;101274.06;124908;1093;64348;-75
2021/06/24 05:50:13;;;;;;;8.70;3.57;;;;;;;16.34;78.59;101274.53;124814;1092;64211;-74
2021/06/24 05:52:40;;;;;;;5.93;3.27;;;;;;;16.42;77.96;101282.41;124793;1093;64377;-74
2021/06/24 05:55:08;;;;;;;5.50;3.03;;;;;;;16.49;77.43;101291.28;124787;1092;64357;-74
2021/06/24 05:57:35;;;;;;;7.13;2.57;;;;;;;16.54;77.06;101279.99;124869;1093;64246;-74
2021/06/24 06:00:05;;;;;;;6.47;3.30;;;;;;;16.62;77.21;101282.50;124781;1093;64288;-74
2021/06/24 06:02:32;;;;;;;6.03;2.87;;;;;;;16.67;76.88;101280.85;124854;1093;64305;-73
2021/06/24 06:04:59;;;;;;;7.07;3.50;;;;;;;16.73;76.52;101289.13;124656;1093;64390;-73
2021/06/24 06:07:26;;;;;;;4.70;3.20;;;;;;;16.78;76.80;101289.34;124654;1093;65485;-73
2021/06/24 06:09:53;;;;;;;10.70;3.93;;;;;;;16.83;76.49;101289.58;124887;1092;64287;-74
2021/06/24 06:12:20;;;;;;;6.37;3.50;;;;;;;16.89;76.28;101294.98;124927;1093;64285;-73
2021/06/24 06:14:47;;;;;;;5.93;3.13;;;;;;;16.94;76.18;101296.20;124820;1093;64277;-76
2021/06/24 06:17:14;;;;;;;8.17;3.80;;;;;;;16.98;75.81;101297.45;124717;1093;64265;-72
2021/06/24 06:19:41;;;;;;;7.07;3.50;;;;;;;17.01;75.92;101297.06;124796;1093;64250;-74
2021/06/24 06:22:08;;;;;;;16.73;11.37;;;;;;;17.04;75.94;101302.86;124838;1093;64661;-73
2021/06/24 06:24:35;;;;;;;7.77;3.20;;;;;;;17.04;75.56;101307.37;124868;1093;64285;-73
2021/06/24 06:27:03;;;;;;;7.40;3.93;;;;;;;17.04;76.13;101308.22;124808;1093;64342;-72
2021/06/24 06:29:30;;;;;;;4.30;2.60;;;;;;;17.03;75.89;101311.09;124862;1093;64301;-73
2021/06/24 06:31:57;;;;;;;6.20;2.97;;;;;;;17.02;75.74;101309.42;124809;1093;64426;-72
2021/06/24 06:34:24;;;;;;;7.07;2.97;;;;;;;17.05;76.08;101315.22;124838;1093;64258;-72
2021/06/24 06:36:51;;;;;;;5.00;2.53;;;;;;;17.06;75.64;101319.53;124647;1093;64348;-72
2021/06/24 06:39:18;;;;;;;6.20;3.40;;;;;;;17.09;75.80;101321.83;124831;1093;64261;-73
2021/06/24 06:41:45;;;;;;;8.43;6.23;;;;;;;17.15;75.70;101330.92;124820;1093;64300;-73
2021/06/24 06:44:12;;;;;;;4.93;2.70;;;;;;;17.15;75.46;101325.56;124840;1093;64958;-73
2021/06/24 06:46:39;;;;;;;7.37;3.77;;;;;;;17.12;75.46;101332.13;124676;1093;64318;-73
2021/06/24 06:49:06;;;;;;;13.93;8.17;;;;;;;17.08;75.71;101330.06;124848;1092;64284;-73
2021/06/24 06:51:33;;;;;;;7.30;3.87;;;;;;;17.09;75.66;101331.73;124809;1093;64285;-71
2021/06/24 06:54:01;;;;;;;4.93;2.20;;;;;;;17.07;75.46;101339.15;124599;1093;64381;-74
2021/06/24 06:56:28;;;;;;;13.83;8.07;;;;;;;17.00;75.31;101333.77;124840;1093;64358;-73
2021/06/24 06:58:56;;;;;;;6.33;3.80;;;;;;;16.97;75.77;101344.88;124862;1093;64327;-73
2021/06/24 07:01:23;;;;;;;7.77;5.23;;;;;;;16.99;75.94;101340.14;124966;1092;64380;-73
2021/06/24 07:03:50;;;;;;;5.53;3.77;;;;;;;17.02;76.09;101334.40;124783;1093;64288;-73
2021/06/24 07:06:17;;;;;;;10.57;5.60;;;;;;;17.08;76.02;101335.42;124712;1093;65407;-73
2021/06/24 07:08:45;;;;;;;7.10;4.30;;;;;;;17.17;75.96;101341.42;124839;1093;64352;-73
2021/06/24 07:11:12;;;;;;;6.97;4.23;;;;;;;17.26;75.92;101340.23;124864;1093;64229;-74
2021/06/24 07:13:39;;;;;;;11.87;4.93;;;;;;;17.38;75.64;101340.44;124713;1093;64354;-73
2021/06/24 07:16:06;;;;;;;8.23;3.83;;;;;;;17.49;75.18;101337.17;124869;1093;64281;-73
2021/06/24 07:18:34;;;;;;;17.23;10.00;;;;;;;17.61;75.04;101340.05;124828;1093;64304;-73
2021/06/24 07:21:01;;;;;;;7.10;3.33;;;;;;;17.72;74.49;101339.42;124784;1093;64398;-73
2021/06/24 07:23:28;;;;;;;7.73;3.53;;;;;;;17.71;73.50;101340.47;124857;1093;64302;-73
2021/06/24 07:25:55;;;;;;;7.33;4.40;;;;;;;17.71;73.23;101337.78;124794;1093;64307;-73
2021/06/24 07:28:23;;;;;;;37.80;28.70;;;;;;;17.76;74.01;101331.80;124842;1093;64278;-72
2021/06/24 07:30:50;;;;;;;7.70;3.90;;;;;;;17.82;73.90;101331.82;125157;1093;64291;-73
2021/06/24 07:33:17;;;;;;;9.23;3.17;;;;;;;17.87;73.06;101334.73;124651;1093;64719;-73
2021/06/24 07:35:45;;;;;;;5.00;2.20;;;;;;;17.89;73.29;101331.81;124700;1093;64300;-73
2021/06/24 07:38:12;;;;;;;11.03;4.00;;;;;;;17.87;73.34;101332.05;124953;1093;64759;-72
2021/06/24 07:40:40;;;;;;;15.50;9.40;;;;;;;17.88;73.51;101330.99;124978;1093;64211;-72
2021/06/24 07:43:08;;;;;;;7.13;3.33;;;;;;;17.90;72.94;101328.93;124880;1093;64403;-73
2021/06/24 07:45:36;;;;;;;6.10;3.43;;;;;;;17.89;73.02;101329.13;124807;1093;64284;-73
2021/06/24 07:48:06;;;;;;;4.80;2.97;;;;;;;17.88;73.06;101330.99;124683;1093;64834;-73
2021/06/24 07:50:34;;;;;;;6.63;3.67;;;;;;;17.87;73.05;101323.99;124649;1092;64368;-72
2021/06/24 07:53:01;;;;;;;15.93;10.53;;;;;;;17.90;73.00;101320.88;125022;1092;64323;-72
2021/06/24 07:55:34;;;;;;;4.90;2.90;;;;;;;17.95;72.67;101309.51;124948;1093;64277;-74
2021/06/24 07:58:07;;;;;;;5.83;2.77;;;;;;;17.97;72.96;101306.63;124848;1093;64240;-72
2021/06/24 08:00:36;;;;;;;7.47;4.10;;;;;;;18.01;72.83;101303.31;124936;1093;64352;-73
2021/06/24 08:03:24;;;;;;;7.40;3.55;;;;;;;18.11;72.92;101308.26;124795;1093;64363;-72
2021/06/24 08:05:51;;;;;;;7.00;3.93;;;;;;;18.16;72.65;101304.94;124855;1093;64307;-73
2021/06/24 08:08:18;;;;;;;9.57;4.37;;;;;;;18.20;72.38;101300.80;124858;1092;64288;-74
2021/06/24 08:10:45;;;;;;;11.13;5.47;;;;;;;18.29;72.40;101300.34;124643;1092;64255;-72
2021/06/24 08:13:13;;;;;;;8.40;3.47;;;;;;;18.41;72.21;101297.02;124860;1093;64170;-73
2021/06/24 08:15:41;;;;;;;6.20;2.93;;;;;;;18.52;72.02;101299.03;124895;1093;64292;-73
2021/06/24 08:18:08;;;;;;;6.70;3.97;;;;;;;18.61;71.49;101296.92;124884;1093;64176;-73
2021/06/24 08:20:35;;;;;;;7.10;3.37;;;;;;;18.66;70.99;101297.95;124854;1092;65292;-73
2021/06/24 08:23:03;;;;;;;8.10;4.40;;;;;;;18.68;70.68;101287.81;124854;1093;64424;-73
2021/06/24 08:25:30;;;;;;;6.53;2.90;;;;;;;18.77;70.93;101284.88;124897;1093;64284;-73
2021/06/24 08:27:58;;;;;;;7.40;4.57;;;;;;;18.81;70.33;101289.64;124904;1092;64780;-72
2021/06/24 08:30:25;;;;;;;60.80;42.27;;;;;;;18.89;70.27;101284.02;124693;1093;64409;-74
2021/06/24 08:32:54;;;;;;;5.93;3.90;;;;;;;19.01;70.08;101280.63;124894;1093;64261;-73
2021/06/24 08:35:21;;;;;;;4.70;2.97;;;;;;;19.13;69.69;101282.41;124848;1092;64975;-75
2021/06/24 08:37:49;;;;;;;4.95;2.75;;;;;;;19.26;68.73;101283.36;124822;1093;64932;-73
2021/06/24 08:40:16;;;;;;;6.15;3.25;;;;;;;19.40;68.37;101268.73;124696;1093;64434;-73
2021/06/24 08:42:46;;;;;;;5.03;2.80;;;;;;;19.54;67.78;101281.05;124866;1093;64211;-74
2021/06/24 08:45:13;;;;;;;5.67;2.37;;;;;;;19.74;67.58;101277.38;124859;1093;64211;-74
2021/06/24 08:47:47;;;;;;;6.13;3.20;;;;;;;19.91;66.54;101274.94;124863;1093;65384;-75
2021/06/24 08:50:16;;;;;;;9.90;3.18;;;;;;;20.16;67.07;101272.19;124873;1093;64288;-74
2021/06/24 08:52:45;;;;;;;7.00;3.13;;;;;;;20.40;66.00;101272.33;124908;1093;65152;-74
2021/06/24 08:55:13;;;;;;;11.55;6.25;;;;;;;20.56;64.83;101272.53;124878;1093;64230;-74
2021/06/24 08:57:40;;;;;;;6.37;2.73;;;;;;;20.67;64.28;101260.19;124847;1093;64967;-75
2021/06/24 09:00:09;;;;;;;6.73;4.00;;;;;;;20.73;62.71;101266.55;124832;1093;64444;-74
2021/06/24 09:02:42;;;;;;;9.43;5.33;;;;;;;20.74;60.93;101266.33;125154;1093;64285;-74
2021/06/24 09:05:11;;;;;;;4.63;2.37;;;;;;;20.76;60.68;101261.53;124896;1093;64287;-73
2021/06/24 09:07:55;;;;;;;5.13;2.63;;;;;;;20.81;61.93;101257.33;124865;1093;64214;-76
2021/06/24 09:10:24;;;;;;;22.03;13.70;;;;;;;20.98;60.94;101266.40;124814;1093;64176;-73
2021/06/24 09:12:57;;;;;;;10.55;6.70;;;;;;;21.10;60.76;101261.86;125035;1092;65478;-72
2021/06/24 09:15:25;;;;;;;7.63;3.23;;;;;;;21.20;59.55;101258.58;124956;1093;64291;-73
2021/06/24 09:17:53;;;;;;;5.20;2.10;;;;;;;21.34;59.75;101264.60;124770;1093;64326;-73
2021/06/24 09:20:24;;;;;;;3.27;1.90;;;;;;;21.50;58.73;101263.11;124890;1093;64306;-73
2021/06/24 09:23:10;;;;;;;3.60;2.13;;;;;;;21.67;58.53;101257.83;124874;1092;64228;-74
2021/06/24 09:25:46;;;;;;;10.05;5.30;;;;;;;21.81;58.00;101267.34;125024;1093;64284;-74
2021/06/24 09:28:14;;;;;;;6.93;3.70;;;;;;;21.96;56.64;101259.58;124859;1092;65054;-73
2021/06/24 09:30:45;;;;;;;5.20;2.20;;;;;;;22.13;56.25;101269.66;124927;1093;64329;-73
2021/06/24 09:33:15;;;;;;;3.43;1.83;;;;;;;22.29;56.17;101268.95;124912;1092;64284;-74
2021/06/24 09:35:53;;;;;;;4.87;1.77;;;;;;;22.41;54.07;101259.98;124742;1093;64387;-75
2021/06/24 09:38:20;;;;;;;7.17;3.70;;;;;;;22.40;53.34;101259.17;124763;1093;64424;-73
2021/06/24 09:40:48;;;;;;;5.23;2.33;;;;;;;22.39;52.75;101258.33;124819;1093;64284;-73
2021/06/24 09:43:24;;;;;;;2.60;1.75;;;;;;;22.48;52.78;101257.95;124971;1093;64285;-73
2021/06/24 09:46:15;;;;;;;4.27;2.07;;;;;;;22.51;52.48;101265.59;124863;1092;64256;-73
2021/06/24 09:48:52;;;;;;;2.50;1.67;;;;;;;22.68;53.25;101262.95;124921;1093;64250;-73
2021/06/24 09:51:21;;;;;;;3.00;1.80;;;;;;;22.82;52.12;101272.38;124962;1093;64432;-74
2021/06/24 09:53:57;;;;;;;3.07;1.70;;;;;;;22.89;51.56;101256.03;124867;1093;64971;-72
2021/06/24 09:56:30;;;;;;;4.97;2.03;;;;;;;23.04;51.32;101264.44;124854;1093;64233;-72
2021/06/24 09:59:02;;;;;;;3.87;1.60;;;;;;;23.24;50.94;101268.55;124999;1093;64227;-72
2021/06/24 10:01:42;;;;;;;2.35;1.15;;;;;;;23.41;49.67;101269.36;125035;1093;64330;-73
2021/06/24 10:04:31;;;;;;;4.10;2.10;;;;;;;23.52;50.21;101265.73;124895;1093;64367;-74
2021/06/24 10:07:01;;;;;;;5.00;1.90;;;;;;;23.72;50.04;101269.84;124856;1093;64342;-73
2021/06/24 10:09:31;;;;;;;4.53;2.23;;;;;;;23.84;49.69;101267.86;124904;1093;64965;-73
2021/06/24 10:11:58;;;;;;;4.50;1.90;;;;;;;23.94;49.34;101268.00;124947;1092;64355;-72
2021/06/24 10:14:27;;;;;;;3.00;1.80;;;;;;;23.97;48.17;101272.94;124900;1093;64262;-74
2021/06/24 10:16:56;;;;;;;3.03;1.63;;;;;;;23.99;47.41;101265.38;124911;1093;64374;-74
2021/06/24 10:19:29;;;;;;;6.80;2.40;;;;;;;23.98;47.35;101268.33;124914;1093;64240;-74
2021/06/24 10:22:15;;;;;;;6.07;1.90;;;;;;;24.04;47.24;101269.23;124667;1093;64301;-74
2021/06/24 10:24:48;;;;;;;5.27;2.37;;;;;;;24.04;47.95;101261.09;124879;1093;64282;-74
2021/06/24 10:27:17;;;;;;;5.80;1.95;;;;;;;24.17;46.77;101260.72;124771;1093;64300;-74
2021/06/24 10:29:50;;;;;;;3.17;1.77;;;;;;;24.24;47.81;101266.76;125021;1093;64394;-73
2021/06/24 10:32:31;;;;;;;4.37;2.00;;;;;;;24.33;47.13;101262.55;125019;1093;64715;-73
2021/06/24 10:35:02;;;;;;;2.40;1.50;;;;;;;24.37;45.81;101260.13;125003;1093;64313;-74
2021/06/24 10:37:32;;;;;;;4.30;1.95;;;;;;;24.32;46.55;101258.19;124915;1092;64285;-74
2021/06/24 10:40:25;;;;;;;9.63;5.10;;;;;;;24.38;46.97;101261.79;124848;1093;64257;-74
2021/06/24 10:42:55;;;;;;;3.30;2.00;;;;;;;24.40;46.08;101265.88;125109;1093;64284;-73
2021/06/24 10:45:24;;;;;;;4.05;2.05;;;;;;;24.31;45.94;101255.72;125058;1093;64374;-73
2021/06/24 10:47:55;;;;;;;3.37;1.67;;;;;;;24.34;46.30;101261.47;125139;1093;64320;-73
2021/06/24 10:50:29;;;;;;;5.95;2.10;;;;;;;24.33;44.95;101259.00;124833;1093;64298;-73
2021/06/24 10:53:03;;;;;;;4.33;2.33;;;;;;;24.39;46.86;101247.14;124983;1093;64311;-80
2021/06/24 10:55:40;;;;;;;;;;;;;;;24.46;47.34;101246.94;124937;1093;65397;-75
2021/06/24 10:58:13;;;;;;;8.60;2.27;;;;;;;24.50;46.42;101242.68;124865;1093;64286;-76
2021/06/24 11:00:46;;;;;;;7.83;2.60;;;;;;;24.64;46.18;101249.34;124921;1093;64275;-74
2021/06/24 11:03:14;;;;;;;;;;;;;;;24.76;44.60;101241.88;124884;1092;64284;-76
2021/06/24 11:05:43;;;;;;;6.53;2.47;;;;;;;24.82;45.49;101237.30;124745;1093;64470;-74
2021/06/24 11:08:19;;;;;;;3.60;2.07;;;;;;;24.81;44.03;101228.34;125211;1093;64428;-75
2021/06/24 11:10:56;;;;;;;2.40;1.70;;;;;;;24.88;45.03;101219.18;125202;1093;64281;-73
2021/06/24 11:13:35;;;;;;;4.30;1.70;;;;;;;25.01;44.68;101230.44;124996;1093;64349;-71
2021/06/24 11:16:21;;;;;;;3.65;1.60;;;;;;;25.28;45.05;101217.91;124860;1092;64295;-73
2021/06/24 11:18:59;;;;;;;7.17;2.40;;;;;;;25.66;44.57;101218.70;124870;1093;64300;-73
2021/06/24 11:21:29;;;;;;;3.67;1.77;;;;;;;25.95;45.09;101219.16;124829;1093;64233;-73
2021/06/24 11:24:00;;;;;;;5.50;3.00;;;;;;;25.97;42.45;101220.52;124841;1093;64268;-73
2021/06/24 11:26:28;;;;;;;3.60;2.40;;;;;;;25.99;42.59;101218.35;125035;1093;64381;-73